Time;durP1;ratioP1;P1;durP2;ratioP2;P2;SDS_P1;SDS_P2;PMS_P1;PMS_P2;Temp;Humidity;BMP_temperature;BMP_pressure;BME280_temperature;BME280_humidity;BME280_pressure;Samples;Min_cycle;Max_cycle;Signal;HPM_P1;HPM_P2
2020/12/06 00:00:12;;;;;;;16.88;13.13;;;7.40;61.00;;;;;;2071346;28;20033;-75
2020/12/06 00:01:13;;;;;;;14.68;12.07;;;7.40;61.10;;;;;;2060423;28;20030;-75
2020/12/06 00:02:13;;;;;;;14.40;11.75;;;7.40;61.20;;;;;;2071860;28;20052;-76
2020/12/06 00:03:14;;;;;;;14.82;12.05;;;7.40;61.20;;;;;;2083374;28;20036;-76
2020/12/06 00:04:20;;;;;;;14.68;12.30;;;7.40;61.30;;;;;;2082774;28;20026;-75
2020/12/06 00:05:20;;;;;;;16.77;12.13;;;7.40;61.40;;;;;;2083101;28;20014;-75
2020/12/06 00:06:21;;;;;;;15.40;12.07;;;7.40;61.40;;;;;;2083450;28;20029;-75
2020/12/06 00:07:21;;;;;;;16.02;12.63;;;7.40;61.40;;;;;;2082896;28;21243;-75
2020/12/06 00:08:22;;;;;;;16.02;12.35;;;7.40;61.40;;;;;;2076295;28;20057;-75
2020/12/06 00:09:23;;;;;;;14.80;11.63;;;7.40;61.50;;;;;;2075393;28;21828;-76
2020/12/06 00:10:23;;;;;;;15.15;12.13;;;7.40;61.50;;;;;;2083304;28;20079;-75
2020/12/06 00:11:24;;;;;;;16.08;11.93;;;7.40;61.50;;;;;;2074800;28;20017;-75
2020/12/06 00:12:24;;;;;;;18.02;12.18;;;7.40;61.50;;;;;;2075311;28;20018;-75
2020/12/06 00:13:25;;;;;;;13.88;11.85;;;7.40;61.60;;;;;;2076465;28;20108;-76
2020/12/06 00:14:25;;;;;;;16.08;12.63;;;7.40;61.50;;;;;;2076591;28;20030;-77
2020/12/06 00:15:26;;;;;;;15.65;12.60;;;7.40;61.50;;;;;;2085283;28;20288;-77
2020/12/06 00:16:27;;;;;;;16.17;12.73;;;7.40;61.60;;;;;;2083926;28;20033;-77
2020/12/06 00:17:28;;;;;;;14.73;12.07;;;7.40;61.60;;;;;;2084722;28;20087;-77
2020/12/06 00:18:28;;;;;;;14.43;11.80;;;7.40;61.60;;;;;;2085075;28;20030;-76
2020/12/06 00:19:29;;;;;;;17.98;12.90;;;7.40;61.60;;;;;;2083565;28;20430;-76
2020/12/06 00:20:30;;;;;;;15.63;12.57;;;7.50;61.60;;;;;;2084660;28;20017;-76
2020/12/06 00:21:31;;;;;;;14.93;12.80;;;7.50;61.60;;;;;;2085486;28;20052;-77
2020/12/06 00:22:31;;;;;;;15.48;11.82;;;7.50;61.60;;;;;;2076320;28;20092;-76
2020/12/06 00:23:32;;;;;;;16.27;13.05;;;7.50;61.60;;;;;;2076291;28;20033;-77
2020/12/06 00:24:32;;;;;;;15.65;12.60;;;7.50;61.60;;;;;;2085018;28;20021;-77
2020/12/06 00:25:33;;;;;;;16.27;13.20;;;7.50;61.60;;;;;;2085105;28;20021;-76
2020/12/06 00:26:35;;;;;;;15.02;11.98;;;7.50;61.60;;;;;;2084446;28;20029;-76
2020/12/06 00:27:36;;;;;;;16.80;12.77;;;7.50;61.60;;;;;;2085194;28;20491;-77
2020/12/06 00:28:37;;;;;;;15.30;12.50;;;7.50;61.70;;;;;;2084382;28;20075;-76
2020/12/06 00:29:39;;;;;;;17.23;12.93;;;7.50;61.70;;;;;;2083705;28;20118;-76
2020/12/06 00:30:40;;;;;;;18.35;13.50;;;7.50;61.70;;;;;;2083669;28;20025;-76
2020/12/06 00:31:40;;;;;;;17.48;12.38;;;7.50;61.60;;;;;;2075732;28;20623;-76
2020/12/06 00:32:41;;;;;;;17.42;13.48;;;7.50;61.70;;;;;;2076384;28;20497;-76
2020/12/06 00:33:42;;;;;;;15.90;12.73;;;7.50;61.60;;;;;;2084682;28;20395;-76
2020/12/06 00:34:42;;;;;;;15.10;12.75;;;7.50;61.60;;;;;;2084565;28;20021;-76
2020/12/06 00:35:43;;;;;;;13.93;11.68;;;7.50;61.60;;;;;;2074927;28;20113;-76
2020/12/06 00:36:48;;;;;;;15.35;12.23;;;7.50;61.60;;;;;;2073994;28;20080;-77
2020/12/06 00:37:48;;;;;;;15.18;11.90;;;7.50;61.70;;;;;;2084247;28;20036;-77
2020/12/06 00:38:49;;;;;;;15.88;11.75;;;7.50;61.60;;;;;;2084285;28;20033;-76
2020/12/06 00:39:49;;;;;;;15.30;12.10;;;7.50;61.60;;;;;;2075359;28;20036;-75
2020/12/06 00:40:50;;;;;;;15.63;12.10;;;7.50;61.60;;;;;;2075375;28;20083;-76
2020/12/06 00:41:50;;;;;;;15.30;12.23;;;7.50;61.50;;;;;;2084581;28;20040;-75
2020/12/06 00:42:51;;;;;;;15.70;12.68;;;7.50;61.60;;;;;;2076526;28;20058;-75
2020/12/06 00:43:51;;;;;;;15.15;12.10;;;7.50;61.60;;;;;;2076480;28;20337;-75
2020/12/06 00:44:52;;;;;;;15.80;12.15;;;7.50;61.50;;;;;;2076261;28;20064;-76
2020/12/06 00:45:53;;;;;;;15.35;11.93;;;7.50;61.50;;;;;;2075862;28;20541;-76
2020/12/06 00:46:57;;;;;;;16.65;13.05;;;7.50;61.50;;;;;;2083978;28;20793;-75
2020/12/06 00:47:58;;;;;;;16.10;12.20;;;7.50;61.60;;;;;;2084647;28;20442;-75
2020/12/06 00:48:58;;;;;;;16.50;12.50;;;7.50;61.50;;;;;;2083021;28;20064;-75
2020/12/06 00:49:59;;;;;;;16.23;12.13;;;7.50;61.50;;;;;;2085189;28;20049;-75
2020/12/06 00:51:00;;;;;;;14.65;12.05;;;7.50;61.50;;;;;;2084877;28;20034;-76
2020/12/06 00:52:00;;;;;;;15.77;12.13;;;7.50;61.50;;;;;;2084737;28;20041;-75
2020/12/06 00:53:01;;;;;;;15.55;12.45;;;7.50;61.50;;;;;;2083504;28;20500;-75
2020/12/06 00:54:02;;;;;;;15.63;12.52;;;7.50;61.50;;;;;;2084607;28;20204;-74
2020/12/06 00:55:03;;;;;;;16.60;12.35;;;7.50;61.50;;;;;;2085259;28;20372;-74
2020/12/06 00:56:04;;;;;;;15.02;11.63;;;7.50;61.50;;;;;;2084394;28;20037;-74
2020/12/06 00:57:04;;;;;;;15.32;12.18;;;7.50;61.50;;;;;;2076331;28;20424;-76
2020/12/06 00:58:05;;;;;;;14.68;11.30;;;7.40;61.40;;;;;;2076410;28;20517;-77
2020/12/06 00:59:05;;;;;;;16.88;12.05;;;7.50;61.50;;;;;;2083237;28;20030;-74
2020/12/06 01:00:09;;;;;;;15.48;12.40;;;7.40;61.40;;;;;;2084524;28;20036;-77
2020/12/06 01:01:09;;;;;;;16.73;12.90;;;7.40;61.40;;;;;;2084192;28;20024;-76
2020/12/06 01:02:11;;;;;;;14.75;12.63;;;7.40;61.40;;;;;;2084395;28;20032;-76
2020/12/06 01:03:12;;;;;;;14.15;11.02;;;7.40;61.40;;;;;;2083585;28;20424;-76
2020/12/06 01:04:13;;;;;;;14.52;11.75;;;7.40;61.40;;;;;;2084838;28;20087;-76
2020/12/06 01:05:14;;;;;;;15.25;12.40;;;7.40;61.40;;;;;;2076263;28;20014;-76
2020/12/06 01:06:16;;;;;;;15.30;12.00;;;7.40;61.40;;;;;;2067096;28;20022;-77
2020/12/06 01:07:17;;;;;;;15.45;11.95;;;7.40;61.40;;;;;;2076549;28;20420;-77
2020/12/06 01:08:17;;;;;;;15.23;12.38;;;7.40;61.40;;;;;;2083510;28;20076;-76
2020/12/06 01:09:18;;;;;;;16.83;12.18;;;7.40;61.50;;;;;;2084546;28;20036;-76
2020/12/06 01:10:19;;;;;;;16.27;12.07;;;7.40;61.40;;;;;;2084822;28;20044;-76
2020/12/06 01:11:19;;;;;;;16.10;12.35;;;7.40;61.50;;;;;;2083779;28;20044;-76
2020/12/06 01:12:20;;;;;;;16.30;12.13;;;7.40;61.50;;;;;;2084700;28;20021;-76
2020/12/06 01:13:20;;;;;;;15.18;11.95;;;7.40;61.50;;;;;;2084467;28;20048;-76
2020/12/06 01:14:21;;;;;;;17.13;11.98;;;7.40;61.50;;;;;;2084482;28;20025;-76
2020/12/06 01:15:21;;;;;;;13.52;11.55;;;7.40;61.50;;;;;;2084547;28;20120;-76
2020/12/06 01:16:22;;;;;;;14.13;11.65;;;7.40;61.60;;;;;;2083773;28;20029;-76
2020/12/06 01:17:22;;;;;;;14.60;11.88;;;7.40;61.60;;;;;;2084495;28;20025;-76
2020/12/06 01:18:23;;;;;;;16.67;12.70;;;7.40;61.60;;;;;;2083899;28;20033;-74
2020/12/06 01:19:23;;;;;;;16.15;12.00;;;7.30;61.50;;;;;;2084247;28;20045;-77
2020/12/06 01:20:24;;;;;;;17.00;12.98;;;7.40;61.60;;;;;;2084048;28;20100;-77
2020/12/06 01:21:24;;;;;;;15.13;12.38;;;7.30;61.60;;;;;;2084676;28;20022;-76
2020/12/06 01:22:25;;;;;;;16.30;12.65;;;7.30;61.60;;;;;;2074532;28;20014;-76
2020/12/06 01:23:26;;;;;;;16.15;12.10;;;7.30;61.60;;;;;;2073831;28;20018;-76
2020/12/06 01:24:26;;;;;;;14.60;11.90;;;7.30;61.60;;;;;;2075622;28;20359;-76
2020/12/06 01:25:27;;;;;;;15.68;12.25;;;7.30;61.60;;;;;;2075243;28;20399;-76
2020/12/06 01:26:27;;;;;;;15.85;12.60;;;7.30;61.60;;;;;;2083335;28;20744;-76
2020/12/06 01:27:28;;;;;;;14.90;11.52;;;7.30;61.60;;;;;;2083515;28;20025;-76
2020/12/06 01:28:28;;;;;;;15.77;12.63;;;7.30;61.60;;;;;;2084034;28;20507;-76
2020/12/06 01:29:29;;;;;;;16.13;12.50;;;7.30;61.60;;;;;;2083401;28;20088;-76
2020/12/06 01:30:29;;;;;;;14.18;11.85;;;7.30;61.60;;;;;;2083744;28;20029;-76
2020/12/06 01:31:30;;;;;;;16.23;12.15;;;7.30;61.70;;;;;;2083376;28;20364;-76
2020/12/06 01:32:32;;;;;;;15.50;12.63;;;7.30;61.70;;;;;;2075931;28;20491;-76
2020/12/06 01:33:33;;;;;;;16.52;11.93;;;7.30;61.70;;;;;;2076028;28;20357;-76
2020/12/06 01:34:33;;;;;;;15.00;12.38;;;7.30;61.70;;;;;;2083226;28;20589;-76
2020/12/06 01:35:34;;;;;;;14.15;11.82;;;7.30;61.70;;;;;;2084949;28;20035;-76
2020/12/06 01:36:34;;;;;;;14.75;11.75;;;7.30;61.70;;;;;;2084302;28;20025;-75
2020/12/06 01:37:35;;;;;;;16.08;12.45;;;7.40;61.80;;;;;;2083680;28;20033;-76
2020/12/06 01:38:36;;;;;;;14.50;12.15;;;7.30;61.80;;;;;;2084404;28;20048;-76
2020/12/06 01:39:37;;;;;;;15.73;12.43;;;7.30;61.80;;;;;;2083842;28;20022;-76
2020/12/06 01:40:41;;;;;;;12.75;10.30;;;7.30;61.80;;;;;;2074949;28;20362;-76
2020/12/06 01:41:42;;;;;;;14.52;11.10;;;7.30;61.80;;;;;;2067395;28;20029;-76
2020/12/06 01:42:42;;;;;;;15.90;11.98;;;7.30;61.70;;;;;;2076089;28;20495;-76
2020/12/06 01:43:52;;;;;;;14.82;12.15;;;7.30;61.80;;;;;;2084384;28;20041;-76
2020/12/06 01:44:57;;;;;;;16.30;12.45;;;7.30;61.90;;;;;;2083005;28;20096;-76
2020/12/06 01:45:58;;;;;;;16.98;12.15;;;7.30;61.80;;;;;;2083359;28;20025;-76
2020/12/06 01:46:58;;;;;;;15.43;12.13;;;7.30;61.60;;;;;;2075038;28;20459;-76
2020/12/06 01:47:59;;;;;;;14.48;11.13;;;7.30;61.60;;;;;;2075158;28;20530;-76
2020/12/06 01:49:00;;;;;;;16.05;11.82;;;7.30;61.60;;;;;;2083296;28;20032;-76
2020/12/06 01:50:00;;;;;;;15.18;11.73;;;7.30;61.60;;;;;;2083988;28;20125;-75
2020/12/06 01:51:01;;;;;;;14.27;11.73;;;7.30;61.70;;;;;;2083686;28;20101;-76
2020/12/06 01:52:06;;;;;;;16.02;12.43;;;7.30;61.70;;;;;;2078711;28;20513;-76
2020/12/06 01:53:08;;;;;;;14.25;11.77;;;7.30;61.60;;;;;;2077184;28;20034;-76
2020/12/06 01:54:08;;;;;;;16.65;13.15;;;7.30;61.60;;;;;;2083647;28;20028;-76
2020/12/06 01:55:12;;;;;;;18.10;13.55;;;7.30;61.60;;;;;;2084029;28;20082;-76
2020/12/06 01:56:13;;;;;;;16.13;12.38;;;7.30;61.60;;;;;;2084359;28;20025;-76
2020/12/06 01:57:14;;;;;;;17.63;12.93;;;7.30;62.30;;;;;;2084205;28;20029;-76
2020/12/06 01:58:15;;;;;;;14.63;11.10;;;7.30;61.60;;;;;;2075372;28;20084;-76
2020/12/06 01:59:16;;;;;;;15.43;12.35;;;7.30;61.60;;;;;;2074661;28;20341;-76
2020/12/06 02:00:17;;;;;;;15.15;11.93;;;7.30;61.60;;;;;;2084095;28;20068;-76
2020/12/06 02:01:17;;;;;;;16.38;12.63;;;7.30;61.60;;;;;;2083537;28;20025;-75
2020/12/06 02:02:18;;;;;;;15.80;12.15;;;7.30;61.70;;;;;;2084548;28;20228;-76
2020/12/06 02:03:19;;;;;;;14.70;12.00;;;7.20;61.60;;;;;;2083682;28;20071;-77
2020/12/06 02:04:20;;;;;;;16.80;12.27;;;7.30;62.30;;;;;;2075817;28;20022;-76
2020/12/06 02:05:20;;;;;;;14.68;11.77;;;7.30;61.60;;;;;;2075476;28;20025;-76
2020/12/06 02:06:21;;;;;;;17.45;12.52;;;7.30;61.70;;;;;;2084195;28;20036;-76
2020/12/06 02:07:22;;;;;;;15.00;12.65;;;7.20;61.70;;;;;;2075522;28;20085;-75
2020/12/06 02:08:23;;;;;;;16.70;12.90;;;7.20;61.70;;;;;;2074530;28;20499;-76
2020/12/06 02:09:26;;;;;;;16.23;12.48;;;7.20;61.70;;;;;;2075073;28;20109;-76
2020/12/06 02:10:29;;;;;;;15.05;12.38;;;7.20;61.70;;;;;;2075453;28;20116;-76
2020/12/06 02:11:31;;;;;;;15.27;12.43;;;7.20;61.70;;;;;;2084844;28;20029;-76
2020/12/06 02:12:32;;;;;;;16.33;12.40;;;7.20;61.70;;;;;;2075413;28;20323;-76
2020/12/06 02:13:32;;;;;;;17.48;12.82;;;7.20;61.70;;;;;;2075035;28;20093;-74
2020/12/06 02:14:33;;;;;;;15.70;12.27;;;7.20;61.70;;;;;;2083436;28;20032;-74
2020/12/06 02:15:36;;;;;;;15.73;11.98;;;7.20;61.70;;;;;;2082520;28;20103;-77
2020/12/06 02:16:37;;;;;;;13.70;11.27;;;7.20;61.80;;;;;;2074116;28;20030;-76
2020/12/06 02:17:37;;;;;;;15.57;12.57;;;7.20;62.40;;;;;;2075350;28;20121;-76
2020/12/06 02:18:38;;;;;;;16.42;12.52;;;7.20;61.70;;;;;;2083164;28;20040;-76
2020/12/06 02:19:39;;;;;;;15.63;11.98;;;7.20;61.80;;;;;;2067438;28;20022;-76
2020/12/06 02:20:40;;;;;;;15.00;12.10;;;7.20;61.70;;;;;;2060036;28;20038;-77
2020/12/06 02:21:41;;;;;;;15.88;13.00;;;7.20;61.60;;;;;;2075442;28;20064;-77
2020/12/06 02:22:42;;;;;;;13.75;11.13;;;7.20;61.70;;;;;;2083384;28;20053;-77
2020/12/06 02:23:42;;;;;;;15.05;11.93;;;7.20;61.70;;;;;;2083222;28;20029;-77
2020/12/06 02:24:43;;;;;;;14.60;11.70;;;7.20;61.70;;;;;;2083801;28;20284;-76
2020/12/06 02:25:43;;;;;;;14.75;12.93;;;7.20;61.80;;;;;;2083946;28;20029;-77
2020/12/06 02:26:49;;;;;;;15.20;12.15;;;7.20;61.70;;;;;;2084319;28;20031;-76
2020/12/06 02:27:49;;;;;;;17.52;13.57;;;7.20;61.70;;;;;;2083815;28;20407;-76
2020/12/06 02:28:50;;;;;;;15.38;12.30;;;7.20;61.70;;;;;;2083657;28;20025;-76
2020/12/06 02:29:50;;;;;;;15.70;11.50;;;7.20;61.60;;;;;;2084255;28;20036;-76
2020/12/06 02:30:51;;;;;;;13.68;11.43;;;7.20;61.60;;;;;;2082829;28;20022;-76
2020/12/06 02:31:51;;;;;;;15.75;12.40;;;7.20;61.60;;;;;;2082472;28;20022;-76
2020/12/06 02:32:52;;;;;;;14.40;11.65;;;7.20;61.70;;;;;;2084042;28;20025;-76
2020/12/06 02:33:52;;;;;;;13.95;11.50;;;7.20;61.60;;;;;;2075430;28;20088;-76
2020/12/06 02:34:53;;;;;;;17.38;12.63;;;7.20;61.60;;;;;;2076024;28;20026;-77
2020/12/06 02:35:53;;;;;;;13.60;11.73;;;7.10;61.50;;;;;;2083999;28;20031;-76
2020/12/06 02:36:54;;;;;;;13.55;11.75;;;7.20;61.60;;;;;;2083900;28;20029;-76
2020/12/06 02:37:54;;;;;;;15.20;11.90;;;7.10;61.50;;;;;;2082861;28;20453;-76
2020/12/06 02:38:55;;;;;;;14.73;11.93;;;7.10;61.50;;;;;;2074686;28;20084;-76
2020/12/06 02:39:56;;;;;;;15.35;11.75;;;7.10;61.50;;;;;;2074506;28;20014;-76
2020/12/06 02:40:56;;;;;;;15.23;11.95;;;7.10;61.50;;;;;;2075159;28;20144;-76
2020/12/06 02:41:57;;;;;;;15.93;12.52;;;7.10;61.50;;;;;;2067880;28;20488;-76
2020/12/06 02:42:57;;;;;;;16.20;12.68;;;7.10;61.50;;;;;;2074598;28;20022;-76
2020/12/06 02:43:58;;;;;;;15.98;12.82;;;7.10;61.50;;;;;;2083758;28;20014;-77
2020/12/06 02:44:58;;;;;;;16.08;12.35;;;7.10;61.50;;;;;;2083178;28;20185;-76
2020/12/06 02:45:59;;;;;;;13.02;10.70;;;7.10;61.60;;;;;;2082020;28;20456;-76
2020/12/06 02:47:00;;;;;;;14.93;12.48;;;7.10;61.50;;;;;;2082515;28;20640;-76
2020/12/06 02:48:00;;;;;;;14.30;11.82;;;7.10;61.50;;;;;;2083023;28;20379;-76
2020/12/06 02:49:01;;;;;;;16.60;12.60;;;7.10;61.50;;;;;;2073559;28;20042;-76
2020/12/06 02:50:04;;;;;;;15.60;12.38;;;7.00;61.50;;;;;;2074684;28;20514;-76
2020/12/06 02:51:05;;;;;;;15.82;11.68;;;7.00;61.60;;;;;;2083969;28;20026;-77
2020/12/06 02:52:10;;;;;;;14.60;12.10;;;7.00;61.60;;;;;;2083581;28;20097;-76
2020/12/06 02:53:10;;;;;;;14.60;11.95;;;7.00;61.60;;;;;;2074062;28;20029;-76
2020/12/06 02:54:11;;;;;;;17.25;13.18;;;7.00;61.60;;;;;;2075140;28;20371;-76
2020/12/06 02:55:11;;;;;;;15.45;12.52;;;7.00;61.60;;;;;;2083353;28;20475;-76
2020/12/06 02:56:12;;;;;;;16.20;12.55;;;7.00;61.60;;;;;;2083349;28;20079;-76
2020/12/06 02:57:12;;;;;;;14.65;12.30;;;7.00;61.70;;;;;;2083951;28;20036;-77
2020/12/06 02:58:13;;;;;;;16.02;12.45;;;7.00;61.70;;;;;;2083445;28;20013;-76
2020/12/06 02:59:13;;;;;;;13.77;11.40;;;7.00;61.80;;;;;;2083054;28;20337;-76
2020/12/06 03:00:14;;;;;;;14.95;11.15;;;7.00;61.80;;;;;;2082332;28;20479;-76
2020/12/06 03:01:15;;;;;;;14.98;11.73;;;6.90;61.80;;;;;;2081487;28;20029;-76
2020/12/06 03:02:15;;;;;;;15.32;11.98;;;6.90;61.90;;;;;;2083384;28;20376;-76
2020/12/06 03:03:16;;;;;;;15.43;12.02;;;6.90;62.00;;;;;;2083587;28;20024;-76
2020/12/06 03:04:16;;;;;;;14.32;11.55;;;6.90;62.00;;;;;;2083646;28;20071;-76
2020/12/06 03:05:17;;;;;;;14.88;11.55;;;6.90;62.00;;;;;;2083752;28;20035;-76
2020/12/06 03:06:18;;;;;;;15.10;12.25;;;6.90;62.00;;;;;;2083466;28;20025;-77
2020/12/06 03:07:19;;;;;;;15.90;11.75;;;7.00;62.10;;;;;;2075127;28;20093;-76
2020/12/06 03:08:19;;;;;;;14.45;11.80;;;6.90;62.10;;;;;;2072804;28;20052;-78
2020/12/06 03:09:20;;;;;;;15.77;11.80;;;6.90;62.10;;;;;;2083474;28;20025;-76
2020/12/06 03:10:21;;;;;;;13.63;11.57;;;6.90;62.20;;;;;;2083698;28;20029;-77
2020/12/06 03:11:25;;;;;;;13.50;11.43;;;6.90;62.30;;;;;;2083522;28;20112;-76
2020/12/06 03:12:25;;;;;;;14.57;11.52;;;7.00;62.40;;;;;;2084023;28;20419;-77
2020/12/06 03:13:26;;;;;;;15.88;11.75;;;6.90;62.30;;;;;;2082451;28;20096;-77
2020/12/06 03:14:27;;;;;;;13.55;10.82;;;6.90;62.30;;;;;;2083818;28;20084;-77
2020/12/06 03:15:27;;;;;;;14.40;11.25;;;7.00;62.30;;;;;;2083692;28;20041;-77
2020/12/06 03:16:28;;;;;;;13.98;11.65;;;7.00;62.30;;;;;;2082624;28;20094;-77
2020/12/06 03:17:28;;;;;;;14.40;11.90;;;7.00;62.30;;;;;;2064480;28;20030;-78
2020/12/06 03:18:29;;;;;;;12.55;9.88;;;7.00;62.30;;;;;;2066141;28;20029;-77
2020/12/06 03:19:30;;;;;;;12.77;10.40;;;7.00;62.30;;;;;;2075723;28;20269;-77
2020/12/06 03:20:30;;;;;;;14.98;11.25;;;7.00;62.10;;;;;;2081787;28;20029;-76
2020/12/06 03:21:31;;;;;;;13.82;11.15;;;7.00;62.10;;;;;;2083595;28;20447;-76
2020/12/06 03:22:34;;;;;;;14.25;11.07;;;7.00;62.10;;;;;;2083037;28;20021;-76
2020/12/06 03:23:35;;;;;;;14.48;11.38;;;7.00;62.10;;;;;;2083977;28;20029;-76
2020/12/06 03:24:35;;;;;;;15.75;11.18;;;7.00;62.10;;;;;;2075275;28;20515;-76
2020/12/06 03:25:36;;;;;;;15.07;11.80;;;7.00;62.20;;;;;;2072941;28;20010;-76
2020/12/06 03:26:37;;;;;;;15.52;11.65;;;7.00;62.10;;;;;;2078960;28;20018;-75
2020/12/06 03:27:37;;;;;;;15.25;12.15;;;7.00;62.10;;;;;;2082831;28;20120;-76
2020/12/06 03:28:38;;;;;;;13.40;10.82;;;7.00;62.20;;;;;;2082614;28;20108;-77
2020/12/06 03:29:38;;;;;;;15.30;10.93;;;7.00;62.20;;;;;;2083226;28;20025;-77
2020/12/06 03:30:39;;;;;;;13.23;11.18;;;7.00;62.20;;;;;;2084060;28;20040;-76
2020/12/06 03:31:39;;;;;;;13.43;10.85;;;7.00;62.30;;;;;;2080317;28;20100;-76
2020/12/06 03:32:40;;;;;;;15.07;11.43;;;7.00;62.30;;;;;;2078850;28;20061;-76
2020/12/06 03:33:40;;;;;;;15.00;11.60;;;7.00;62.30;;;;;;2083418;28;20040;-76
2020/12/06 03:34:41;;;;;;;14.43;11.32;;;7.00;62.30;;;;;;2083649;28;20018;-76
2020/12/06 03:35:41;;;;;;;15.18;11.50;;;7.00;62.30;;;;;;2084697;28;20022;-76
2020/12/06 03:36:42;;;;;;;13.30;11.38;;;7.00;62.30;;;;;;2083363;28;20021;-75
2020/12/06 03:37:42;;;;;;;13.93;11.60;;;7.00;62.30;;;;;;2073731;28;20088;-76
2020/12/06 03:38:43;;;;;;;13.70;11.45;;;7.00;62.20;;;;;;2074713;28;20026;-77
2020/12/06 03:39:43;;;;;;;12.80;10.25;;;7.00;62.20;;;;;;2083827;28;20114;-76
2020/12/06 03:40:44;;;;;;;13.80;11.20;;;7.00;62.20;;;;;;2083422;28;20822;-76
2020/12/06 03:41:45;;;;;;;13.82;10.95;;;7.00;62.10;;;;;;2083844;28;20477;-76
2020/12/06 03:42:48;;;;;;;13.18;11.00;;;7.00;62.10;;;;;;2074880;28;20518;-76
2020/12/06 03:43:49;;;;;;;13.27;10.98;;;7.00;62.10;;;;;;2074497;28;20037;-75
2020/12/06 03:44:49;;;;;;;14.45;10.18;;;7.00;62.00;;;;;;2084563;28;20481;-76
2020/12/06 03:45:50;;;;;;;13.38;10.88;;;7.00;62.00;;;;;;2074829;28;20309;-76
2020/12/06 03:46:50;;;;;;;13.15;10.90;;;7.00;62.00;;;;;;2073946;28;20432;-76
2020/12/06 03:47:54;;;;;;;12.95;10.63;;;7.00;62.10;;;;;;2083731;28;20351;-75
2020/12/06 03:48:55;;;;;;;15.02;11.48;;;7.00;62.10;;;;;;2084620;28;20029;-75
2020/12/06 03:49:56;;;;;;;12.93;10.55;;;7.00;62.00;;;;;;2085408;28;20473;-75
2020/12/06 03:50:56;;;;;;;14.13;10.77;;;7.00;62.10;;;;;;2085835;28;20118;-76
2020/12/06 03:51:57;;;;;;;14.38;11.23;;;7.10;62.10;;;;;;2084698;28;20017;-75
2020/12/06 03:52:57;;;;;;;13.57;11.27;;;7.00;62.10;;;;;;2084727;28;20092;-75
2020/12/06 03:53:58;;;;;;;13.60;11.07;;;7.00;62.20;;;;;;2085209;28;20021;-75
2020/12/06 03:54:58;;;;;;;13.07;11.00;;;7.00;62.20;;;;;;2085358;28;20356;-75
2020/12/06 03:55:59;;;;;;;15.38;11.27;;;7.10;62.30;;;;;;2085422;28;20037;-75
2020/12/06 03:56:59;;;;;;;13.65;10.38;;;7.10;62.30;;;;;;2080176;28;20030;-75
2020/12/06 03:58:00;;;;;;;13.40;10.90;;;7.10;62.30;;;;;;2082696;28;20025;-75
2020/12/06 03:59:00;;;;;;;13.70;11.10;;;7.10;62.20;;;;;;2084757;28;20032;-75
2020/12/06 04:00:02;;;;;;;14.10;10.75;;;7.10;62.30;;;;;;2085809;28;20033;-75
2020/12/06 04:01:02;;;;;;;12.48;10.90;;;7.10;62.30;;;;;;2084711;28;20128;-75
2020/12/06 04:02:03;;;;;;;12.82;10.73;;;7.10;62.30;;;;;;2085326;28;20017;-75
2020/12/06 04:03:03;;;;;;;11.68;10.07;;;7.10;62.40;;;;;;2084881;28;20079;-76
2020/12/06 04:04:04;;;;;;;13.02;11.27;;;7.10;62.40;;;;;;2085514;28;20410;-75
2020/12/06 04:05:05;;;;;;;13.65;11.35;;;7.10;62.30;;;;;;2085234;28;20346;-76
2020/12/06 04:06:05;;;;;;;14.18;10.30;;;7.10;62.30;;;;;;2085824;28;20456;-76
2020/12/06 04:07:06;;;;;;;14.77;11.52;;;7.10;62.30;;;;;;2085476;28;20030;-76
2020/12/06 04:08:07;;;;;;;12.75;10.85;;;7.10;62.30;;;;;;2084955;28;20044;-76
2020/12/06 04:09:07;;;;;;;14.15;10.55;;;7.10;62.30;;;;;;2084854;28;20053;-77
2020/12/06 04:10:08;;;;;;;13.88;10.70;;;7.10;62.30;;;;;;2085865;28;20033;-76
2020/12/06 04:11:08;;;;;;;14.70;10.93;;;7.10;62.30;;;;;;2085393;28;20462;-76
2020/12/06 04:12:09;;;;;;;15.15;10.77;;;7.10;62.20;;;;;;2086092;28;20050;-76
2020/12/06 04:13:09;;;;;;;14.10;10.75;;;7.10;62.20;;;;;;2084124;28;20495;-77
2020/12/06 04:14:10;;;;;;;12.90;10.40;;;7.10;62.20;;;;;;2077118;28;20479;-77
2020/12/06 04:15:11;;;;;;;15.43;11.20;;;7.10;62.10;;;;;;2076838;28;20033;-77
2020/12/06 04:16:12;;;;;;;14.57;10.77;;;7.10;62.10;;;;;;2084246;28;20029;-77
2020/12/06 04:17:12;;;;;;;14.40;11.60;;;7.10;62.10;;;;;;2085400;28;20582;-77
2020/12/06 04:18:13;;;;;;;15.05;11.30;;;7.10;62.10;;;;;;2085668;28;20025;-76
2020/12/06 04:19:13;;;;;;;13.52;11.52;;;7.10;62.10;;;;;;2084500;28;20033;-76
2020/12/06 04:20:14;;;;;;;14.18;11.05;;;7.10;62.10;;;;;;2085172;28;20104;-77
2020/12/06 04:21:14;;;;;;;12.95;10.57;;;7.10;62.10;;;;;;2085417;28;20420;-77
2020/12/06 04:22:15;;;;;;;13.77;11.48;;;7.10;62.10;;;;;;2084973;28;20029;-76
2020/12/06 04:23:15;;;;;;;13.07;10.30;;;7.10;62.10;;;;;;2084304;28;20059;-76
2020/12/06 04:24:16;;;;;;;12.63;10.68;;;7.10;62.00;;;;;;2085335;28;20025;-76
2020/12/06 04:25:16;;;;;;;14.48;11.90;;;7.10;62.10;;;;;;2076323;28;20021;-77
2020/12/06 04:26:17;;;;;;;13.23;10.30;;;7.10;62.00;;;;;;2076754;28;20021;-76
2020/12/06 04:27:18;;;;;;;12.38;10.63;;;7.10;62.00;;;;;;2076120;28;20053;-76
2020/12/06 04:28:18;;;;;;;14.80;11.10;;;7.10;62.00;;;;;;2075811;28;20460;-76
2020/12/06 04:29:19;;;;;;;14.80;10.13;;;7.10;62.00;;;;;;2078925;28;20093;-76
2020/12/06 04:30:19;;;;;;;12.07;9.95;;;7.10;62.00;;;;;;2084866;28;20033;-76
2020/12/06 04:31:20;;;;;;;13.88;10.68;;;7.10;62.00;;;;;;2083915;28;20033;-76
2020/12/06 04:32:21;;;;;;;14.52;10.27;;;7.10;61.90;;;;;;2077218;28;20125;-76
2020/12/06 04:33:21;;;;;;;13.52;10.70;;;7.10;61.90;;;;;;2076119;28;20036;-76
2020/12/06 04:34:22;;;;;;;14.02;11.13;;;7.10;61.80;;;;;;2076433;28;20091;-76
2020/12/06 04:35:22;;;;;;;13.75;10.30;;;7.10;61.90;;;;;;2084991;28;20029;-76
2020/12/06 04:36:23;;;;;;;11.50;10.30;;;7.10;61.90;;;;;;2076527;28;20018;-76
2020/12/06 04:37:23;;;;;;;14.27;10.77;;;7.10;61.90;;;;;;2075752;28;20025;-77
2020/12/06 04:38:24;;;;;;;12.38;11.02;;;7.10;61.90;;;;;;2084312;28;20041;-75
2020/12/06 04:39:25;;;;;;;13.88;10.50;;;7.10;62.00;;;;;;2084335;28;20474;-75
2020/12/06 04:40:25;;;;;;;14.40;11.18;;;7.10;62.00;;;;;;2075826;28;20030;-76
2020/12/06 04:41:26;;;;;;;13.80;11.13;;;7.10;62.00;;;;;;2076817;28;20132;-76
2020/12/06 04:42:27;;;;;;;12.23;9.65;;;7.10;62.10;;;;;;2083778;28;20563;-76
2020/12/06 04:43:28;;;;;;;13.45;10.25;;;7.10;62.00;;;;;;2084362;28;20059;-76
2020/12/06 04:44:29;;;;;;;13.65;10.52;;;7.10;62.00;;;;;;2085556;28;20013;-76
2020/12/06 04:45:30;;;;;;;12.60;9.82;;;7.10;62.00;;;;;;2075308;28;20080;-76
2020/12/06 04:46:36;;;;;;;13.27;10.32;;;7.10;62.10;;;;;;2074950;28;20084;-76
2020/12/06 04:47:47;;;;;;;13.10;10.27;;;7.10;62.20;;;;;;2085036;28;20410;-76
2020/12/06 04:49:06;;;;;;;12.55;10.40;;;7.10;62.20;;;;;;2085270;28;20041;-75
2020/12/06 04:50:12;;;;;;;13.70;10.65;;;7.10;62.30;;;;;;2079776;28;20617;-76
2020/12/06 04:51:14;;;;;;;12.55;10.45;;;7.10;62.10;;;;;;2079872;28;20044;-77
2020/12/06 04:52:18;;;;;;;13.65;10.68;;;7.10;62.10;;;;;;2083671;28;20531;-76
2020/12/06 04:53:22;;;;;;;12.90;10.40;;;7.10;62.10;;;;;;2075791;28;20450;-76
2020/12/06 04:54:32;;;;;;;13.93;10.82;;;7.10;62.20;;;;;;2084648;28;20492;-76
2020/12/06 04:55:34;;;;;;;12.10;9.98;;;7.10;62.30;;;;;;2085232;28;20306;-77
2020/12/06 04:56:38;;;;;;;11.10;9.23;;;7.10;62.20;;;;;;2085143;28;20021;-75
2020/12/06 04:57:39;;;;;;;14.02;10.70;;;7.10;62.00;;;;;;2074821;28;20041;-76
2020/12/06 04:58:40;;;;;;;12.63;10.43;;;7.10;62.00;;;;;;2075441;28;20112;-76
2020/12/06 04:59:42;;;;;;;13.93;11.38;;;7.10;62.00;;;;;;2084356;28;20104;-76
2020/12/06 05:00:44;;;;;;;14.68;11.50;;;7.10;62.00;;;;;;2084024;28;20130;-76
2020/12/06 05:01:48;;;;;;;12.75;10.98;;;7.10;62.00;;;;;;2083819;28;20328;-76
2020/12/06 05:02:51;;;;;;;12.70;10.38;;;7.10;62.00;;;;;;2084863;28;20460;-76
2020/12/06 05:03:57;;;;;;;14.02;11.00;;;7.10;62.10;;;;;;2084741;28;20028;-76
2020/12/06 05:05:02;;;;;;;15.02;11.27;;;7.10;62.10;;;;;;2075736;28;20301;-76
2020/12/06 05:06:05;;;;;;;13.73;11.00;;;7.10;62.10;;;;;;2076316;28;20541;-76
2020/12/06 05:07:05;;;;;;;13.85;10.95;;;7.10;62.10;;;;;;2084545;28;20115;-77
2020/12/06 05:08:11;;;;;;;12.07;10.70;;;7.10;62.20;;;;;;2082855;28;20487;-76
2020/12/06 05:09:15;;;;;;;13.57;10.50;;;7.10;62.00;;;;;;2083295;28;20095;-77
2020/12/06 05:10:16;;;;;;;14.07;10.85;;;7.10;62.00;;;;;;2084981;28;20048;-76
2020/12/06 05:11:17;;;;;;;15.32;10.60;;;7.10;62.00;;;;;;2083764;28;20100;-77
2020/12/06 05:12:19;;;;;;;13.70;10.85;;;7.10;61.90;;;;;;2083980;28;20427;-77
2020/12/06 05:13:19;;;;;;;14.50;10.23;;;7.10;61.90;;;;;;2083708;28;20030;-76
2020/12/06 05:14:20;;;;;;;13.30;9.63;;;7.10;61.90;;;;;;2084789;28;20025;-76